createdAt,value
2022-09-06T00:03:45.635Z,62.22
2022-09-06T00:08:48.550Z,68.41
2022-09-06T00:13:51.891Z,61.91
2022-09-06T00:18:54.819Z,58.15
2022-09-06T00:23:57.129Z,59.13
2022-09-06T00:28:59.935Z,65.91
2022-09-06T00:34:03.118Z,64.74
2022-09-06T00:39:05.438Z,60.28
2022-09-06T00:44:07.804Z,57.78
2022-09-06T00:49:13.793Z,61.72
2022-09-06T00:54:16.449Z,67.49
2022-09-06T00:59:18.800Z,61.45
2022-09-06T01:04:21.583Z,58.09
2022-09-06T01:09:26.964Z,61.85
2022-09-06T01:14:31.223Z,67.05
2022-09-06T01:19:36.487Z,61.42
2022-09-06T01:24:38.777Z,58.32
2022-09-06T01:29:43.031Z,59.76
2022-09-06T01:34:49.057Z,66.84
2022-09-06T01:39:51.533Z,63.05
2022-09-06T01:44:56.355Z,58.50
2022-09-06T01:50:04.247Z,58.32
2022-09-06T01:55:09.479Z,63.50
2022-09-06T02:00:13.401Z,67.27
2022-09-06T02:05:15.703Z,61.24
2022-09-06T02:10:23.233Z,58.16
2022-09-06T02:15:28.634Z,60.49
2022-09-06T02:20:32.996Z,66.89
2022-09-06T02:25:38.284Z,62.76
2022-09-06T02:30:44.908Z,57.59
2022-09-06T02:35:48.807Z,60.08
2022-09-06T02:40:52.290Z,66.79
2022-09-06T02:45:54.718Z,63.14
2022-09-06T02:50:57.083Z,58.15
2022-09-06T02:55:59.894Z,59.67
2022-09-06T03:01:02.305Z,66.42
2022-09-06T03:06:04.806Z,63.25
2022-09-06T03:11:07.382Z,57.67
2022-09-06T03:16:09.857Z,59.26
2022-09-06T03:21:12.399Z,64.11
2022-09-06T03:26:15.959Z,66.27
2022-09-06T03:31:18.399Z,59.63
2022-09-06T03:36:20.832Z,57.55
2022-09-06T03:41:23.155Z,62.49
2022-09-06T03:46:25.695Z,66.77
2022-09-06T03:51:28.177Z,60.32
2022-09-06T03:56:30.504Z,57.66
2022-09-06T04:01:33.188Z,62.83
2022-09-06T04:06:35.644Z,67.68
2022-09-06T04:11:38.006Z,61.40
2022-09-06T04:16:40.422Z,57.88
2022-09-06T04:21:42.822Z,62.42
2022-09-06T04:26:45.186Z,66.38
2022-09-06T04:31:47.578Z,61.03
2022-09-06T04:37:01.039Z,58.00
2022-09-06T04:42:08.454Z,63.50
2022-09-06T04:47:14.765Z,64.03
2022-09-06T04:52:17.606Z,59.78
2022-09-06T04:57:19.982Z,57.04
2022-09-06T05:02:22.436Z,61.02
2022-09-06T05:07:24.852Z,65.55
2022-09-06T05:12:27.252Z,59.78
2022-09-06T05:17:30.305Z,57.62
2022-09-06T05:22:32.609Z,64.62
2022-09-06T05:27:34.966Z,61.46
2022-09-06T05:32:37.267Z,58.15
2022-09-06T05:37:39.553Z,64.57
2022-09-06T05:42:41.921Z,62.91
2022-09-06T05:47:44.288Z,58.24
2022-09-06T05:52:47.260Z,58.43
2022-09-06T05:57:49.619Z,61.25
2022-09-06T06:02:52.252Z,61.24
2022-09-06T06:07:55.519Z,60.56
2022-09-06T06:12:57.852Z,66.72
2022-09-06T06:18:00.195Z,66.84
2022-09-06T06:23:02.485Z,59.60
2022-09-06T06:28:04.787Z,57.62
2022-09-06T06:33:07.096Z,64.01
2022-09-06T06:38:09.420Z,61.85
2022-09-06T06:43:11.748Z,57.91
2022-09-06T06:48:14.155Z,63.26
2022-09-06T06:53:16.474Z,63.71
2022-09-06T06:58:19.045Z,57.11
2022-09-06T07:03:21.508Z,58.08
2022-09-06T07:08:23.934Z,64.60
2022-09-06T07:13:26.394Z,60.99
2022-09-06T07:18:28.774Z,55.70
2022-09-06T07:28:54.039Z,64.63
2022-09-06T07:33:56.476Z,56.16
2022-09-06T07:38:59.814Z,58.24
2022-09-06T07:44:02.253Z,62.40
2022-09-06T07:49:05.449Z,53.98
2022-09-06T07:54:29.304Z,53.78
2022-09-06T07:59:31.005Z,55.79
2022-09-06T08:04:33.326Z,58.44
2022-09-06T08:09:36.439Z,59.88
2022-09-06T08:14:38.788Z,53.05
2022-09-06T08:19:41.162Z,50.37
2022-09-06T08:24:43.491Z,51.48
2022-09-06T08:29:45.820Z,54.20
2022-09-06T08:34:48.119Z,53.58
2022-09-06T08:39:50.555Z,51.18
2022-09-06T08:50:02.321Z,56.43
2022-09-06T08:55:07.764Z,54.94
2022-09-06T09:00:12.627Z,54.43
2022-09-06T09:05:21.022Z,55.01
2022-09-06T09:10:26.628Z,54.14
2022-09-06T09:15:29.226Z,54.76
2022-09-06T09:20:31.579Z,50.05
2022-09-06T09:25:34.132Z,49.21
2022-09-06T09:35:49.112Z,48.89
2022-09-06T09:40:52.927Z,47.74
2022-09-06T09:46:11.178Z,48.30
2022-09-06T09:51:25.440Z,45.69
2022-09-06T09:56:36.919Z,52.75
2022-09-06T10:01:39.240Z,50.05
2022-09-06T10:12:04.807Z,43.06
2022-09-06T10:17:07.280Z,42.87
2022-09-06T10:22:14.558Z,46.59
2022-09-06T10:27:23.300Z,41.99
2022-09-06T10:32:30.370Z,41.01
2022-09-06T10:37:36.237Z,42.12
2022-09-06T10:42:42.307Z,41.31
2022-09-06T10:48:02.514Z,44.07
2022-09-06T10:53:11.733Z,43.50
2022-09-06T10:58:26.210Z,39.86
2022-09-06T11:09:00.107Z,42.98
2022-09-06T11:14:07.836Z,41.61
2022-09-06T11:19:17.484Z,39.74
2022-09-06T11:24:22.739Z,43.39
2022-09-06T11:29:27.674Z,43.57
2022-09-06T11:34:32.695Z,41.75
2022-09-06T11:44:57.421Z,39.18
2022-09-06T11:49:59.747Z,42.68
2022-09-06T11:55:02.551Z,42.11
2022-09-06T12:00:08.409Z,40.78
2022-09-06T12:05:12.957Z,39.29
2022-09-06T12:10:18.257Z,40.05
2022-09-06T12:15:40.893Z,42.06
2022-09-06T12:20:46.161Z,39.73
2022-09-06T12:25:51.883Z,39.33
2022-09-06T12:30:54.452Z,38.19
2022-09-06T12:36:00.588Z,39.52
2022-09-06T12:41:05.047Z,39.54
2022-09-06T12:46:07.986Z,40.10
2022-09-06T12:51:16.131Z,41.36
2022-09-06T12:56:21.028Z,41.71
2022-09-06T13:01:26.507Z,38.92
2022-09-06T13:06:30.184Z,41.09
2022-09-06T13:11:35.298Z,41.46
2022-09-06T13:16:42.016Z,43.41
2022-09-06T13:21:46.040Z,41.89
2022-09-06T13:26:49.442Z,42.10
2022-09-06T13:31:53.229Z,40.57
2022-09-06T13:37:13.673Z,39.80
2022-09-06T13:42:19.093Z,38.77
2022-09-06T13:47:25.120Z,39.18
2022-09-06T13:52:27.543Z,43.67
2022-09-06T13:57:30.256Z,40.55
2022-09-06T14:02:33.134Z,38.35
2022-09-06T14:07:35.542Z,36.85
2022-09-06T14:12:40.061Z,38.24
2022-09-06T14:17:42.345Z,37.72
2022-09-06T14:22:44.777Z,36.49
2022-09-06T14:27:48.541Z,37.00
2022-09-06T14:32:50.936Z,36.40
2022-09-06T14:37:53.274Z,38.65
2022-09-06T14:42:55.849Z,34.71
2022-09-06T14:47:58.716Z,30.50
2022-09-06T14:53:01.190Z,27.92
2022-09-06T14:58:03.540Z,27.14
2022-09-06T15:03:05.964Z,27.26
2022-09-06T15:08:08.660Z,27.66
2022-09-06T15:13:11.194Z,29.14
2022-09-06T15:18:14.321Z,27.46
2022-09-06T15:23:25.441Z,26.06
2022-09-06T15:28:28.139Z,26.13
2022-09-06T15:33:30.912Z,24.52
2022-09-06T15:38:33.784Z,24.03
2022-09-06T15:43:38.054Z,23.56
2022-09-06T15:48:42.311Z,24.41
2022-09-06T15:53:45.041Z,24.75
2022-09-06T15:58:47.498Z,24.28
2022-09-06T16:03:54.194Z,22.58
2022-09-06T16:08:59.137Z,22.86
2022-09-06T16:14:01.782Z,25.86
2022-09-06T16:19:04.298Z,29.18
2022-09-06T16:24:08.040Z,32.81
2022-09-06T16:29:11.457Z,35.43
2022-09-06T16:34:14.039Z,38.56
2022-09-06T16:39:16.344Z,39.89
2022-09-06T16:44:18.729Z,42.31
2022-09-06T16:49:21.050Z,44.05
2022-09-06T16:54:23.363Z,45.35
2022-09-06T16:59:26.361Z,46.75
2022-09-06T17:04:28.913Z,44.34
2022-09-06T17:09:34.283Z,45.53
2022-09-06T17:14:36.872Z,45.31
2022-09-06T17:19:41.242Z,46.51
2022-09-06T17:24:43.704Z,47.88
2022-09-06T17:29:46.005Z,47.11
2022-09-06T17:34:48.307Z,47.62
2022-09-06T17:39:50.746Z,48.28
2022-09-06T17:44:53.346Z,48.57
2022-09-06T17:49:55.751Z,49.62
2022-09-06T17:54:59.471Z,49.98
2022-09-06T18:00:02.288Z,51.04
2022-09-06T18:05:04.836Z,51.37
2022-09-06T18:10:08.153Z,51.12
2022-09-06T18:15:10.533Z,50.37
2022-09-06T18:20:13.878Z,51.10
2022-09-06T18:25:16.218Z,51.72
2022-09-06T18:30:18.609Z,55.90
2022-09-06T18:35:20.899Z,57.90
2022-09-06T18:40:23.387Z,61.61
2022-09-06T18:45:25.811Z,67.65
2022-09-06T18:50:28.137Z,56.86
2022-09-06T18:55:35.360Z,54.02
2022-09-06T19:00:37.762Z,55.50
2022-09-06T19:05:40.056Z,57.59
2022-09-06T19:10:42.882Z,56.09
2022-09-06T19:15:45.421Z,55.72
2022-09-06T19:20:56.305Z,55.61
2022-09-06T19:26:00.170Z,55.60
2022-09-06T19:31:06.372Z,55.36
2022-09-06T19:36:11.917Z,55.63
2022-09-06T19:41:15.895Z,55.34
2022-09-06T19:46:18.711Z,55.92
2022-09-06T19:51:21.535Z,56.20
2022-09-06T19:56:25.067Z,56.80
2022-09-06T20:01:29.698Z,56.78
2022-09-06T20:06:32.886Z,55.75
2022-09-06T20:11:35.908Z,55.57
2022-09-06T20:16:41.930Z,55.85
2022-09-06T20:21:45.053Z,58.28
2022-09-06T20:26:47.869Z,59.37
2022-09-06T20:31:50.258Z,57.63
2022-09-06T20:36:52.651Z,56.02
2022-09-06T20:41:55.040Z,55.91
2022-09-06T20:46:58.451Z,55.94
2022-09-06T20:52:00.781Z,56.82
2022-09-06T20:57:03.359Z,56.24
2022-09-06T21:02:06.252Z,57.78
2022-09-06T21:07:08.841Z,58.23
2022-09-06T21:12:11.146Z,59.12
2022-09-06T21:17:13.509Z,58.62
2022-09-06T21:22:17.935Z,59.42
2022-09-06T21:27:20.365Z,59.73
2022-09-06T21:32:22.653Z,59.60
2022-09-06T21:37:24.964Z,58.22
2022-09-06T21:42:28.731Z,59.42
2022-09-06T21:47:31.330Z,59.85
2022-09-06T21:52:33.660Z,60.13
2022-09-06T21:57:36.075Z,61.16
2022-09-06T22:02:38.532Z,60.89
2022-09-06T22:07:40.830Z,60.45
2022-09-06T22:12:43.247Z,59.92
2022-09-06T22:17:45.615Z,60.63
2022-09-06T22:22:48.247Z,61.71
2022-09-06T22:27:50.535Z,74.72
2022-09-06T22:32:53.151Z,73.40
2022-09-06T22:37:55.449Z,65.68
2022-09-06T22:42:57.741Z,60.98
2022-09-06T22:48:00.091Z,56.91
2022-09-06T22:53:02.441Z,59.90
2022-09-06T22:58:05.193Z,64.94
2022-09-06T23:03:07.547Z,65.87
2022-09-06T23:08:09.894Z,59.44
2022-09-06T23:13:12.250Z,57.13
2022-09-06T23:18:14.773Z,60.70
2022-09-06T23:23:17.109Z,67.53
2022-09-06T23:28:20.086Z,62.88
2022-09-06T23:33:22.456Z,57.07
2022-09-06T23:38:24.958Z,58.67
2022-09-06T23:43:27.326Z,64.64
2022-09-06T23:48:29.917Z,65.27
2022-09-06T23:53:32.915Z,58.51
2022-09-06T23:58:35.505Z,57.36
